»·PEaware :: N626N KPOC-KLAS

N626N :: KPOC-KLAS

FLIGHT INFORMATION

Flight Status: Arrived
Operator: Privately registered:
United States
More flights under this callsign
Pilot: Andy P. (22680)
Aircraft: Unknown
(B60T)
More flights by this aircraft type
Origin: KPOC Brackett
United States
Destination: KLAS Harry Reid Intl
United States
More flights between these airports :: More routes between these airports
Route: PRADO V16 PDZ V8 HEC CRESO5
File this flight plan on PilotEdge
Remarks:
Altitude:
(Current/Filed)
19,000ft
Speed:
(Current/Filed)
280kts
Departed: 24-Oct-23 03:20 PM
Arrived: 24-Oct-23 04:13 PM
Distance/Time
Traveled:
175nm/0:53
Distance/Time
To Go:
Arrived

Flight Plot

Page will automatically refresh every two minutes.

Flight plan parsing failed; only flown route is shown


Map Options




Map Legend


Flown Route
Filed Route
Departure Airport
Arrival Airport
Navaid (VOR, NDB)
Fix

Horizontal Profiles

Position Reports

Time Latitude Longitude Heading Altitude Ground
Speed
24-Oct-23 15:04 34.090480 -117.784083 275 1014ft 0kts
24-Oct-23 15:05 34.090480 -117.784083 275 1014ft 0kts
24-Oct-23 15:06 34.090480 -117.784084 274 1014ft 0kts
24-Oct-23 15:07 34.090480 -117.784089 274 1014ft 0kts
24-Oct-23 15:08 34.090481 -117.784093 274 1014ft 0kts
24-Oct-23 15:09 34.090481 -117.784097 274 1014ft 0kts
24-Oct-23 15:10 34.090481 -117.784102 274 1014ft 0kts
24-Oct-23 15:11 34.090482 -117.784106 274 1014ft 0kts
24-Oct-23 15:12 34.090482 -117.784110 274 1014ft 0kts
24-Oct-23 15:13 34.090482 -117.784115 274 1014ft 0kts
24-Oct-23 15:14 34.090482 -117.784119 274 1014ft 0kts
24-Oct-23 15:15 34.090483 -117.784123 274 1014ft 0kts
24-Oct-23 15:16 34.090483 -117.784127 274 1014ft 0kts
24-Oct-23 15:17 34.090684 -117.783650 92 1014ft 12kts
24-Oct-23 15:18 34.090373 -117.776982 90 1014ft 20kts
24-Oct-23 15:19 34.091078 -117.777001 272 1014ft 76kts
24-Oct-23 15:20 34.064843 -117.790211 148 2743ft 204kts
24-Oct-23 15:21 34.012346 -117.782423 179 4851ft 181kts
24-Oct-23 15:22 33.960018 -117.783854 180 7041ft 198kts
24-Oct-23 15:23 33.922187 -117.743409 86 9269ft 209kts
24-Oct-23 15:24 33.921099 -117.672087 88 11490ft 217kts
24-Oct-23 15:25 33.919550 -117.596127 86 12865ft 249kts
24-Oct-23 15:26 33.930706 -117.515341 44 12929ft 240kts
24-Oct-23 15:27 33.974923 -117.462190 40 15043ft 219kts
24-Oct-23 15:28 34.017849 -117.410542 39 17243ft 217kts
24-Oct-23 15:29 34.061337 -117.358466 39 18866ft 235kts
24-Oct-23 15:30 34.111452 -117.298168 40 18887ft 263kts
24-Oct-23 15:31 34.163016 -117.235931 40 18891ft 265kts
24-Oct-23 15:32 34.214909 -117.173260 40 18921ft 263kts
24-Oct-23 15:33 34.266533 -117.110684 40 18970ft 263kts
24-Oct-23 15:34 34.318244 -117.048020 40 19023ft 263kts
24-Oct-23 15:35 34.369918 -116.985310 40 19053ft 263kts
24-Oct-23 15:36 34.421553 -116.922522 40 19056ft 263kts
24-Oct-23 15:37 34.473124 -116.859680 40 19039ft 263kts
24-Oct-23 15:38 34.524912 -116.796471 40 19018ft 264kts
24-Oct-23 15:39 34.576982 -116.732804 40 18974ft 266kts
24-Oct-23 15:40 34.628741 -116.669388 40 18947ft 264kts
24-Oct-23 15:41 34.680615 -116.605776 40 18926ft 265kts
24-Oct-23 15:42 34.732468 -116.542006 40 18920ft 265kts
24-Oct-23 15:43 34.784245 -116.478187 40 18919ft 265kts
24-Oct-23 15:44 34.835311 -116.413049 42 18926ft 266kts
24-Oct-23 15:45 34.885874 -116.346777 42 18892ft 267kts
24-Oct-23 15:46 34.936407 -116.280639 42 18891ft 267kts
24-Oct-23 15:47 34.987014 -116.214271 42 18890ft 267kts
24-Oct-23 15:48 35.037832 -116.147496 42 18876ft 269kts
24-Oct-23 15:49 35.088759 -116.080436 42 18873ft 268kts
24-Oct-23 15:50 35.139540 -116.013454 43 18874ft 269kts
24-Oct-23 15:51 35.190442 -115.946181 43 18872ft 270kts
24-Oct-23 15:52 35.241687 -115.878378 43 18871ft 271kts
24-Oct-23 15:53 35.292817 -115.810533 43 18874ft 271kts
24-Oct-23 15:54 35.343936 -115.742393 44 17484ft 263kts
24-Oct-23 15:55 35.394037 -115.675731 45 15785ft 268kts
24-Oct-23 15:56 35.443896 -115.608905 46 14084ft 260kts
24-Oct-23 15:57 35.492247 -115.544180 46 12382ft 254kts
24-Oct-23 15:58 35.537972 -115.483136 46 12003ft 236kts
24-Oct-23 15:59 35.582741 -115.423021 47 12004ft 244kts
24-Oct-23 16:00 35.629137 -115.360530 47 12006ft 249kts
24-Oct-23 16:01 35.675962 -115.297425 47 12011ft 249kts
24-Oct-23 16:02 35.722390 -115.234747 47 12010ft 247kts
24-Oct-23 16:03 35.770295 -115.172771 32 11741ft 259kts
24-Oct-23 16:04 35.839613 -115.148348 11 9992ft 253kts
24-Oct-23 16:05 35.907807 -115.131603 11 8199ft 247kts
24-Oct-23 16:06 35.970861 -115.116002 12 8016ft 223kts
24-Oct-23 16:07 36.032438 -115.100730 11 6789ft 216kts
24-Oct-23 16:08 36.093123 -115.085511 11 5990ft 216kts
24-Oct-23 16:09 36.141950 -115.097491 274 5106ft 204kts
24-Oct-23 16:10 36.124434 -115.141834 210 3173ft 111kts
24-Oct-23 16:11 36.097225 -115.157839 205 2205ft 96kts
24-Oct-23 16:12 36.089510 -115.164436 237 2184ft 16kts
24-Oct-23 16:13 36.082705 -115.168585 203 2184ft 47kts
24-Oct-23 16:14 36.081065 -115.171039 87 2184ft 0kts

Navigation Log

Ident Type
Flight plan parsing failed, navigation log unavailable